PFYU

Details ICAO PFYU (FYU)
Name FORT YUKON
Region USA (Alaska)
Timezone America/Anchorage (UTC-9.0)
Plans Departing 1
Arriving 0
Stats Elevation 433 ft / 132 m (AMSL)
Location 66.571487° -145.250425°
Runways 1
Magnetic Variation 18.652° E
Sunrise 2017-12-13 20:22:59 UTC / 2017-12-13 11:22:59 Local
Sunset 2017-12-13 22:50:38 UTC / 2017-12-13 13:50:38 Local
Advertisement - Login to hide

Runways

ID Width Length Bearing (true) Bearing (mag) Surface Threshold Offset Overrun Length
03 151 ft / 46 m 5,789 ft / 1,764 m 60.28° 41.63° Gravel 810 ft / 247 m 0 ft / 0 m
21 151 ft / 46 m 5,789 ft / 1,764 m 240.31° 221.66° Gravel 0 ft / 0 m 0 ft / 0 m

Map

Weather


0- 5 10 15 20 25 30 35+ Temperature / ° C

Clouds and Precipitation
Forecast for 2017-12-14 06:00 UTC. Updated an hour ago

Ground ~20,000 ft ~40,000 ft Winds

METAR

PFYU 140156Z 05010KT 7SM -SN FEW010 SCT023 OVC041 M06/M07 A2965

TAF

Not found

Frequencies

Recorded 125.80 MHz AWOS-3
Unicom 122.10 MHz Fairbanks FSS
Approach 135.00 MHz Anchorage ARTCC
Unicom 122.50 MHz CTAF
Tower 125.30 MHz EIELSON RANGE CON
Warning: Do not use this data for real-world aviation or navigation. No guarantee of current accuracy is given.